Athol, KS (66932)

4:30 PM CST on December 25, 2014 (GMT -0600)
RAWS KIRWIN KS US | Change Station
CLOSE
Current Station
Personal Weather Station
Location: Kirwin, KS
Elevation: 1747 ft
Nearby Weather Stations

Elev 1747 ft 39.67 °N, 99.20 °W | Updated 34 minutes ago

Clear
Clear
56 °F
Feels Like 56 °F
N
4
Wind Variable Wind from North
Gusts 6.0 mph

Today
High -- | Low -- °F
--% Chance of Precip.
Yesterday
High -- | Low -- °F
Precip. -- in
7:55 AM 5:16 PM
Waxing Crescent, 19% visible
Pressure 29.55 in
Visibility 10.0 miles
Clouds Clear
Dew Point 24 °F
Humidity 29%
Rainfall 0.00 in
Snow Depth Not available.
UV 0 out of 12
Pollen .10 out of 12
Air Quality Not available.
Flu Activity Not available.
METAR KHDE 252215Z AUTO 02003KT 10SM CLR 06/M03 A2955 RMK AO2 T00581033

More Conditions Fewer Conditions

Pressure 29.55 in
Visibility 10.0 miles
Clouds Clear
Dew Point 24 °F
Humidity 29%
Rainfall 0.00 in
Snow Depth Not available.
UV 0 out of 12
Pollen .10 out of 12
Air Quality Not available.
Flu Activity Not available.
METAR KHDE 252215Z AUTO 02003KT 10SM CLR 06/M03 A2955 RMK AO2 T00581033

More Conditions Fewer Conditions

10-Day Weather Forecast

Almanac

Astronomy

Dec. 25, 2014 Rise Set
Actual Time
Civil Twilight
Nautical Twilight
Astronomical Twilight
Moon
Length of Visible Light
Length of Day
Tomorrow will be .
, % of the Moon is Illuminated

Today's Extremes

State Highs State Lows

Community

WunderPhotos

Upload Photos

1,780,430 photos uploaded!

WunderBlogs® & News

Nearby

Air Quality

  Air Quality AQ Index Pollutant
Not available.

Snow Depth

Station Depth Elevation

Earthquake Activity

City Distance Mag. Time & Date
Minimum magnitude displayed is 2.5.

Coastal Water Temperatures

Place Temperature

Nearby Weather Stations